createdAt,value
2022-10-09T00:01:12.059Z,32.83
2022-10-09T00:03:41.281Z,27.17
2022-10-09T00:06:10.290Z,36.38
2022-10-09T00:08:41.486Z,32.63
2022-10-09T00:11:10.514Z,29.58
2022-10-09T00:13:38.312Z,25.98
2022-10-09T00:16:07.286Z,30.92
2022-10-09T00:18:36.027Z,29.67
2022-10-09T00:21:04.654Z,25.77
2022-10-09T00:23:32.501Z,35.25
2022-10-09T00:26:01.279Z,31.35
2022-10-09T00:28:30.144Z,31.08
2022-10-09T00:30:57.799Z,31.50
2022-10-09T00:33:25.412Z,30.02
2022-10-09T00:35:53.132Z,30.77
2022-10-09T00:38:21.457Z,36.85
2022-10-09T00:40:49.074Z,30.45
2022-10-09T00:43:18.877Z,35.20
2022-10-09T00:45:51.122Z,36.40
2022-10-09T00:48:18.671Z,42.03
2022-10-09T00:50:55.992Z,31.42
2022-10-09T00:53:24.345Z,35.45
2022-10-09T00:55:52.703Z,33.78
2022-10-09T00:58:20.881Z,27.67
2022-10-09T01:00:49.869Z,27.52
2022-10-09T01:03:17.409Z,35.17
2022-10-09T01:06:02.767Z,32.50
2022-10-09T01:08:39.464Z,36.95
2022-10-09T01:11:13.671Z,34.97
2022-10-09T01:13:48.896Z,29.63
2022-10-09T01:16:27.619Z,28.58
2022-10-09T01:19:22.505Z,32.35
2022-10-09T01:22:03.724Z,31.30
2022-10-09T01:24:38.439Z,34.35
2022-10-09T01:27:09.042Z,30.02
2022-10-09T01:29:41.286Z,37.60
2022-10-09T01:32:09.597Z,34.17
2022-10-09T01:34:37.754Z,32.67
2022-10-09T01:37:05.283Z,32.63
2022-10-09T01:39:33.362Z,23.65
2022-10-09T01:42:00.944Z,24.38
2022-10-09T01:44:30.242Z,30.63
2022-10-09T01:46:59.373Z,34.13
2022-10-09T01:49:50.134Z,29.40
2022-10-09T01:52:24.713Z,27.75
2022-10-09T01:55:14.474Z,27.48
2022-10-09T01:58:05.207Z,27.80
2022-10-09T02:00:42.149Z,30.48
2022-10-09T02:03:11.389Z,28.55
2022-10-09T02:05:39.125Z,43.70
2022-10-09T02:08:06.776Z,26.88
2022-10-09T02:10:34.418Z,47.85
2022-10-09T02:13:02.554Z,31.02
2022-10-09T02:15:37.590Z,36.28
2022-10-09T02:18:15.253Z,33.28
2022-10-09T02:20:46.051Z,35.72
2022-10-09T02:23:13.777Z,28.63
2022-10-09T02:25:41.598Z,31.42
2022-10-09T02:28:11.589Z,33.08
2022-10-09T02:30:46.390Z,31.48
2022-10-09T02:33:14.060Z,29.33
2022-10-09T02:35:42.001Z,28.75
2022-10-09T02:38:09.592Z,24.52
2022-10-09T02:40:37.137Z,27.35
2022-10-09T02:43:04.896Z,29.40
2022-10-09T02:45:32.558Z,29.83
2022-10-09T02:48:00.488Z,33.45
2022-10-09T02:50:28.240Z,28.13
2022-10-09T02:52:57.239Z,29.60
2022-10-09T02:55:24.922Z,26.38
2022-10-09T02:57:52.562Z,25.30
2022-10-09T03:00:20.213Z,31.30
2022-10-09T03:02:48.223Z,30.33
2022-10-09T03:05:16.057Z,24.30
2022-10-09T03:07:51.252Z,25.80
2022-10-09T03:10:19.939Z,29.63
2022-10-09T03:12:47.890Z,23.85
2022-10-09T03:15:16.730Z,24.92
2022-10-09T03:17:44.297Z,25.83
2022-10-09T03:20:11.910Z,28.50
2022-10-09T03:22:39.641Z,29.67
2022-10-09T03:25:07.952Z,25.38
2022-10-09T03:27:35.926Z,25.25
2022-10-09T03:30:04.441Z,22.65
2022-10-09T03:32:32.277Z,24.67
2022-10-09T03:35:00.102Z,29.05
2022-10-09T03:37:27.832Z,24.35
2022-10-09T03:39:55.536Z,28.42
2022-10-09T03:42:23.204Z,22.15
2022-10-09T03:44:50.781Z,27.80
2022-10-09T03:47:18.415Z,26.20
2022-10-09T03:49:46.209Z,23.45
2022-10-09T03:52:13.782Z,26.17
2022-10-09T03:54:41.344Z,29.02
2022-10-09T03:57:08.898Z,30.27
2022-10-09T03:59:37.599Z,25.02
2022-10-09T04:02:05.196Z,26.08
2022-10-09T04:04:32.742Z,26.88
2022-10-09T04:07:00.839Z,27.98
2022-10-09T04:09:28.488Z,30.50
2022-10-09T04:11:57.066Z,34.53
2022-10-09T04:14:24.857Z,26.85
2022-10-09T04:16:52.427Z,28.13
2022-10-09T04:19:23.046Z,30.37
2022-10-09T04:21:52.147Z,24.23
2022-10-09T04:24:19.767Z,27.85
2022-10-09T04:26:47.362Z,30.50
2022-10-09T04:29:15.404Z,37.80
2022-10-09T04:31:43.008Z,39.33
2022-10-09T04:34:11.047Z,39.08
2022-10-09T04:36:38.716Z,29.67
2022-10-09T04:39:06.377Z,31.77
2022-10-09T04:41:38.234Z,28.77
2022-10-09T04:44:06.266Z,30.30
2022-10-09T04:46:34.116Z,25.67
2022-10-09T04:49:01.931Z,28.35
2022-10-09T04:51:29.581Z,26.58
2022-10-09T04:54:00.437Z,26.83
2022-10-09T04:56:28.577Z,32.63
2022-10-09T04:58:56.154Z,32.05
2022-10-09T05:01:25.629Z,32.72
2022-10-09T05:03:53.580Z,29.25
2022-10-09T05:06:21.829Z,30.60
2022-10-09T05:08:49.804Z,26.35
2022-10-09T05:11:19.683Z,31.80
2022-10-09T05:13:49.116Z,26.23
2022-10-09T05:16:21.671Z,31.42
2022-10-09T05:18:53.402Z,26.83
2022-10-09T05:21:21.221Z,32.80
2022-10-09T05:23:49.722Z,28.17
2022-10-09T05:26:18.725Z,27.75
2022-10-09T05:28:48.279Z,27.17
2022-10-09T05:31:24.303Z,25.98
2022-10-09T05:33:52.701Z,25.33
2022-10-09T05:36:21.063Z,27.52
2022-10-09T05:38:49.444Z,29.70
2022-10-09T05:41:17.946Z,27.50
2022-10-09T05:43:47.132Z,24.02
2022-10-09T05:46:23.525Z,22.52
2022-10-09T05:48:53.974Z,21.48
2022-10-09T05:51:23.235Z,18.33
2022-10-09T05:53:51.420Z,14.80
2022-10-09T05:56:21.197Z,17.63
2022-10-09T05:58:57.346Z,17.40
2022-10-09T06:01:29.455Z,21.67
2022-10-09T06:03:58.844Z,15.90
2022-10-09T06:06:30.872Z,19.10
2022-10-09T06:08:58.620Z,18.77
2022-10-09T06:11:28.752Z,14.65
2022-10-09T06:14:00.506Z,16.40
2022-10-09T06:16:32.798Z,18.95
2022-10-09T06:19:00.913Z,17.15
2022-10-09T06:21:29.026Z,15.95
2022-10-09T06:23:58.116Z,16.42
2022-10-09T06:26:30.986Z,18.05
2022-10-09T06:28:59.979Z,17.67
2022-10-09T06:31:31.889Z,16.58
2022-10-09T06:34:00.350Z,18.35
2022-10-09T06:36:29.524Z,16.48
2022-10-09T06:39:03.555Z,11.90
2022-10-09T06:41:31.519Z,16.23
2022-10-09T06:44:00.683Z,16.42
2022-10-09T06:46:30.343Z,15.13
2022-10-09T06:48:59.193Z,15.77
2022-10-09T06:51:28.266Z,14.48
2022-10-09T06:53:57.116Z,11.75
2022-10-09T06:56:25.952Z,11.60
2022-10-09T06:58:53.523Z,16.52
2022-10-09T07:01:27.036Z,13.50
2022-10-09T07:03:58.957Z,11.38
2022-10-09T07:06:29.554Z,11.90
2022-10-09T07:09:00.771Z,17.77
2022-10-09T07:11:33.384Z,9.90
2022-10-09T07:14:01.887Z,12.48
2022-10-09T07:16:40.514Z,11.32
2022-10-09T07:19:11.333Z,11.60
2022-10-09T07:21:40.567Z,14.63
2022-10-09T07:24:08.268Z,12.50
2022-10-09T07:26:37.785Z,12.48
2022-10-09T07:29:06.388Z,14.77
2022-10-09T07:31:34.209Z,14.38
2022-10-09T07:34:01.821Z,14.80
2022-10-09T07:36:29.714Z,10.20
2022-10-09T07:38:58.506Z,12.50
2022-10-09T07:41:27.652Z,13.77
2022-10-09T07:43:55.699Z,16.25
2022-10-09T07:46:24.287Z,14.63
2022-10-09T07:48:52.405Z,12.20
2022-10-09T07:51:24.409Z,14.25
2022-10-09T07:53:52.193Z,7.97
2022-10-09T07:56:21.992Z,14.02
2022-10-09T07:58:50.633Z,10.30
2022-10-09T08:01:20.345Z,12.27
2022-10-09T08:03:48.580Z,9.45
2022-10-09T08:06:16.988Z,14.32
2022-10-09T08:08:44.947Z,11.10
2022-10-09T08:11:14.289Z,9.80
2022-10-09T08:13:43.164Z,12.23
2022-10-09T08:16:11.260Z,13.20
2022-10-09T08:18:38.821Z,12.05
2022-10-09T08:21:08.263Z,8.73
2022-10-09T08:23:36.090Z,10.60
2022-10-09T08:26:04.149Z,10.60
2022-10-09T08:28:32.605Z,16.10
2022-10-09T08:31:00.352Z,10.52
2022-10-09T08:33:28.040Z,12.73
2022-10-09T08:35:55.600Z,18.13
2022-10-09T08:38:46.158Z,14.57
2022-10-09T08:41:33.355Z,12.23
2022-10-09T08:44:13.383Z,10.98
2022-10-09T08:47:09.846Z,9.95
2022-10-09T08:49:40.121Z,11.02
2022-10-09T08:52:29.578Z,10.07
2022-10-09T08:54:58.944Z,15.98
2022-10-09T08:57:27.703Z,12.68
2022-10-09T08:59:55.554Z,11.75
2022-10-09T09:02:33.644Z,13.55
2022-10-09T09:05:04.253Z,11.32
2022-10-09T09:07:35.769Z,14.13
2022-10-09T09:12:53.617Z,12.77
2022-10-09T09:15:40.202Z,12.88
2022-10-09T09:18:46.459Z,10.20
2022-10-09T09:21:45.241Z,11.40
2022-10-09T09:24:34.895Z,11.40
2022-10-09T09:27:06.539Z,11.80
2022-10-09T09:29:38.819Z,16.27
2022-10-09T09:32:07.645Z,13.23
2022-10-09T09:34:39.604Z,12.32
2022-10-09T09:37:10.231Z,13.80
2022-10-09T09:42:27.430Z,12.50
2022-10-09T09:45:02.307Z,10.40
2022-10-09T09:47:42.221Z,12.35
2022-10-09T09:50:23.464Z,16.02
2022-10-09T09:52:57.694Z,11.40
2022-10-09T09:55:27.724Z,12.80
2022-10-09T09:58:04.007Z,11.05
2022-10-09T10:00:31.830Z,9.93
2022-10-09T10:03:14.016Z,11.40
2022-10-09T10:05:42.673Z,11.23
2022-10-09T10:08:30.222Z,11.25
2022-10-09T10:11:02.868Z,10.50
2022-10-09T10:13:38.289Z,10.48
2022-10-09T10:16:07.040Z,9.98
2022-10-09T10:18:39.624Z,13.70
2022-10-09T10:21:14.245Z,13.10
2022-10-09T10:24:03.955Z,9.55
2022-10-09T10:26:49.070Z,11.95
2022-10-09T10:29:20.012Z,10.18
2022-10-09T10:31:51.520Z,10.70
2022-10-09T10:34:23.433Z,13.95
2022-10-09T10:37:01.063Z,10.68
2022-10-09T10:39:40.736Z,9.02
2022-10-09T10:42:12.477Z,7.45
2022-10-09T10:44:50.455Z,9.20
2022-10-09T10:47:20.364Z,8.27
2022-10-09T10:49:48.173Z,10.77
2022-10-09T10:52:44.931Z,13.02
2022-10-09T10:55:21.434Z,11.50
2022-10-09T10:57:49.170Z,17.48
2022-10-09T11:00:17.732Z,17.20
2022-10-09T11:03:11.113Z,9.10
2022-10-09T11:05:51.482Z,12.32
2022-10-09T11:08:22.302Z,10.73
2022-10-09T11:13:40.617Z,10.25
2022-10-09T11:16:22.321Z,11.70
2022-10-09T11:19:20.878Z,13.20
2022-10-09T11:22:20.805Z,13.57
2022-10-09T11:25:07.069Z,10.25
2022-10-09T11:27:49.224Z,11.10
2022-10-09T11:30:17.461Z,11.18
2022-10-09T11:33:10.373Z,12.88
2022-10-09T11:35:42.706Z,10.07
2022-10-09T11:38:31.918Z,11.55
2022-10-09T11:41:02.658Z,14.80
2022-10-09T11:43:43.445Z,15.27
2022-10-09T11:46:18.820Z,12.13
2022-10-09T11:49:07.714Z,13.93
2022-10-09T11:51:39.469Z,13.95
2022-10-09T11:54:13.633Z,17.70
2022-10-09T11:56:55.439Z,13.02
2022-10-09T11:59:36.186Z,18.83
2022-10-09T12:02:26.416Z,22.20
2022-10-09T12:04:55.644Z,14.82
2022-10-09T12:07:33.127Z,19.55
2022-10-09T12:10:22.217Z,13.73
2022-10-09T12:13:03.573Z,16.13
2022-10-09T12:15:37.137Z,20.05
2022-10-09T12:18:24.786Z,16.08
2022-10-09T12:20:52.418Z,23.80
2022-10-09T12:23:27.208Z,14.25
2022-10-09T12:25:55.865Z,19.13
2022-10-09T12:28:34.816Z,28.50
2022-10-09T12:31:04.017Z,17.80
2022-10-09T12:33:53.655Z,56.70
2022-10-09T12:36:26.375Z,21.23
2022-10-09T12:38:54.061Z,16.75
2022-10-09T12:41:30.568Z,18.55
2022-10-09T12:43:58.210Z,17.30
2022-10-09T12:46:37.478Z,18.88
2022-10-09T12:49:06.345Z,13.70
2022-10-09T12:51:34.025Z,16.90
2022-10-09T12:54:06.860Z,17.13
2022-10-09T12:56:38.240Z,16.92
2022-10-09T12:59:09.481Z,19.13
2022-10-09T13:01:38.018Z,15.40
2022-10-09T13:04:06.244Z,16.55
2022-10-09T13:06:46.370Z,16.58
2022-10-09T13:09:25.456Z,17.45
2022-10-09T13:12:21.221Z,15.52
2022-10-09T13:15:03.648Z,20.98
2022-10-09T13:17:39.845Z,28.10
2022-10-09T13:20:16.560Z,25.35
2022-10-09T13:23:03.770Z,30.60
2022-10-09T13:25:36.400Z,19.30
2022-10-09T13:28:05.217Z,23.00
2022-10-09T13:30:33.111Z,26.67
2022-10-09T13:33:00.958Z,28.65
2022-10-09T13:35:28.649Z,28.58
2022-10-09T13:37:56.333Z,28.15
2022-10-09T13:40:24.363Z,32.15
2022-10-09T13:42:56.104Z,34.63
2022-10-09T13:45:23.847Z,35.63
2022-10-09T13:47:52.635Z,41.63
2022-10-09T13:50:20.527Z,41.35
2022-10-09T13:52:48.100Z,40.08
2022-10-09T13:55:15.781Z,44.60
2022-10-09T13:57:44.136Z,44.15
2022-10-09T14:00:12.680Z,44.60
2022-10-09T14:02:40.449Z,55.60
2022-10-09T14:05:08.209Z,62.63
2022-10-09T14:07:36.775Z,60.35
2022-10-09T14:10:05.204Z,55.80
2022-10-09T14:12:32.843Z,57.03
2022-10-09T14:15:00.425Z,53.92
2022-10-09T14:17:28.684Z,59.50
2022-10-09T14:19:56.344Z,61.00
2022-10-09T14:22:23.874Z,60.03
2022-10-09T14:24:51.516Z,57.30
2022-10-09T14:27:19.317Z,53.60
2022-10-09T14:29:49.766Z,58.15
2022-10-09T14:32:18.830Z,46.90
2022-10-09T14:34:46.653Z,47.75
2022-10-09T14:37:29.621Z,49.75
2022-10-09T14:40:02.252Z,52.42
2022-10-09T14:42:30.026Z,140.18
2022-10-09T14:44:57.723Z,60.45
2022-10-09T14:47:26.946Z,59.58
2022-10-09T14:49:54.666Z,57.75
2022-10-09T14:52:22.267Z,74.00
2022-10-09T14:54:49.903Z,75.45
2022-10-09T14:57:17.649Z,77.85
2022-10-09T14:59:45.349Z,62.20
2022-10-09T15:02:14.636Z,61.72
2022-10-09T15:04:42.509Z,62.38
2022-10-09T15:07:10.960Z,60.58
2022-10-09T15:09:44.482Z,49.38
2022-10-09T15:12:12.183Z,284.08
2022-10-09T15:14:40.017Z,82.95
2022-10-09T15:17:09.087Z,60.05
2022-10-09T15:19:40.015Z,72.05
2022-10-09T15:22:07.840Z,70.28
2022-10-09T15:24:35.677Z,74.50
2022-10-09T15:27:03.622Z,79.68
2022-10-09T15:29:31.268Z,75.20
2022-10-09T15:31:59.098Z,75.70
2022-10-09T15:34:27.026Z,90.40
2022-10-09T15:36:54.570Z,84.45
2022-10-09T15:39:22.313Z,92.00
2022-10-09T15:41:50.477Z,89.32
2022-10-09T15:44:19.741Z,111.47
2022-10-09T15:46:47.739Z,88.88
2022-10-09T15:49:15.221Z,90.85
2022-10-09T15:51:42.901Z,89.47
2022-10-09T15:54:11.069Z,82.38
2022-10-09T15:56:40.219Z,77.30
2022-10-09T15:59:10.734Z,85.00
2022-10-09T16:01:38.768Z,93.17
2022-10-09T16:04:06.595Z,100.15
2022-10-09T16:06:34.748Z,81.60
2022-10-09T16:09:04.154Z,82.63
2022-10-09T16:11:32.147Z,85.18
2022-10-09T16:14:00.664Z,84.60
2022-10-09T16:16:33.247Z,93.65
2022-10-09T16:19:02.404Z,96.15
2022-10-09T16:21:30.318Z,96.15
2022-10-09T16:23:59.457Z,102.25
2022-10-09T16:26:28.582Z,99.38
2022-10-09T16:28:56.320Z,102.80
2022-10-09T16:31:28.840Z,105.72
2022-10-09T16:33:58.680Z,97.03
2022-10-09T16:36:26.458Z,124.35
2022-10-09T16:38:54.026Z,124.65
2022-10-09T16:41:22.284Z,121.57
2022-10-09T16:43:54.929Z,134.35
2022-10-09T16:46:27.312Z,150.88
2022-10-09T16:48:55.738Z,126.68
2022-10-09T16:51:25.527Z,122.60
2022-10-09T16:53:54.408Z,114.70
2022-10-09T16:56:23.772Z,101.15
2022-10-09T16:58:54.860Z,101.95
2022-10-09T17:01:22.577Z,110.53
2022-10-09T17:03:50.199Z,115.72
2022-10-09T17:06:23.880Z,113.40
2022-10-09T17:08:53.279Z,117.72
2022-10-09T17:11:21.129Z,118.25
2022-10-09T17:13:48.740Z,131.75
2022-10-09T17:16:20.749Z,117.75
2022-10-09T17:18:48.421Z,207.52
2022-10-09T17:21:16.740Z,132.52
2022-10-09T17:23:45.186Z,112.35
2022-10-09T17:26:14.653Z,113.45
2022-10-09T17:28:42.782Z,108.20
2022-10-09T17:31:16.564Z,114.32
2022-10-09T17:33:46.372Z,117.13
2022-10-09T17:36:20.880Z,110.88
2022-10-09T17:38:50.005Z,108.65
2022-10-09T17:41:18.972Z,104.45
2022-10-09T17:43:47.452Z,110.57
2022-10-09T17:46:15.609Z,102.55
2022-10-09T17:48:45.392Z,97.03
2022-10-09T17:51:17.550Z,98.15
2022-10-09T17:53:45.761Z,104.50
2022-10-09T17:56:13.586Z,80.78
2022-10-09T17:58:42.877Z,76.90
2022-10-09T18:01:10.805Z,69.93
2022-10-09T18:03:38.484Z,100.97
2022-10-09T18:06:07.966Z,76.20
2022-10-09T18:08:36.645Z,86.00
2022-10-09T18:11:08.065Z,69.95
2022-10-09T18:13:38.129Z,75.43
2022-10-09T18:16:09.697Z,275.10
2022-10-09T18:18:37.636Z,246.20
2022-10-09T18:21:08.397Z,119.40
2022-10-09T18:23:36.654Z,81.60
2022-10-09T18:26:11.145Z,80.55
2022-10-09T18:28:38.834Z,82.57
2022-10-09T18:31:11.209Z,77.55
2022-10-09T18:33:39.178Z,73.30
2022-10-09T18:36:19.789Z,75.68
2022-10-09T18:38:48.959Z,79.25
2022-10-09T18:41:17.083Z,74.45
2022-10-09T18:43:44.732Z,69.82
2022-10-09T18:46:12.545Z,69.00
2022-10-09T18:48:40.685Z,62.50
2022-10-09T18:51:13.723Z,64.50
2022-10-09T18:53:44.111Z,78.15
2022-10-09T18:56:11.775Z,66.60
2022-10-09T18:58:40.713Z,57.92
2022-10-09T19:01:08.509Z,69.07
2022-10-09T19:03:37.814Z,97.38
2022-10-09T19:06:06.159Z,403.65
2022-10-09T19:08:36.653Z,103.00
2022-10-09T19:11:04.491Z,83.82
2022-10-09T19:13:32.132Z,69.47
2022-10-09T19:16:00.338Z,78.72
2022-10-09T19:18:28.516Z,76.72
2022-10-09T19:20:57.734Z,76.75
2022-10-09T19:23:27.909Z,76.38
2022-10-09T19:25:57.288Z,82.57
2022-10-09T19:28:27.806Z,93.65
2022-10-09T19:30:56.065Z,74.00
2022-10-09T19:33:23.728Z,88.82
2022-10-09T19:35:53.167Z,78.65
2022-10-09T19:38:21.196Z,73.82
2022-10-09T19:40:49.019Z,84.53
2022-10-09T19:43:17.051Z,73.60
2022-10-09T19:45:44.903Z,60.10
2022-10-09T19:48:18.221Z,56.53
2022-10-09T19:50:46.344Z,52.83
2022-10-09T19:53:14.163Z,53.47
2022-10-09T19:55:41.966Z,53.95
2022-10-09T19:58:09.653Z,56.03
2022-10-09T20:00:46.743Z,54.97
2022-10-09T20:03:14.516Z,53.70
2022-10-09T20:05:42.856Z,64.50
2022-10-09T20:08:18.049Z,64.15
2022-10-09T20:10:48.081Z,54.83
2022-10-09T20:13:15.745Z,54.72
2022-10-09T20:15:46.084Z,54.55
2022-10-09T20:18:14.694Z,46.35
2022-10-09T20:20:47.311Z,50.70
2022-10-09T20:25:42.714Z,47.60
2022-10-09T20:28:10.598Z,47.40
2022-10-09T20:30:38.361Z,47.28
2022-10-09T20:33:07.406Z,45.58
2022-10-09T20:35:43.215Z,40.00
2022-10-09T20:38:11.064Z,48.58
2022-10-09T20:40:38.649Z,43.60
2022-10-09T20:43:06.445Z,73.53
2022-10-09T20:45:41.647Z,63.80
2022-10-09T20:48:09.561Z,51.90
2022-10-09T20:50:40.342Z,53.22
2022-10-09T20:53:10.041Z,53.00
2022-10-09T20:55:38.436Z,47.85
2022-10-09T20:58:06.149Z,51.92
2022-10-09T21:00:33.899Z,50.90
2022-10-09T21:03:03.964Z,45.55
2022-10-09T21:05:31.721Z,50.88
2022-10-09T21:07:59.332Z,66.95
2022-10-09T21:10:27.025Z,48.78
2022-10-09T21:12:54.662Z,64.28
2022-10-09T21:15:24.831Z,49.17
2022-10-09T21:17:52.473Z,52.17
2022-10-09T21:20:20.168Z,55.40
2022-10-09T21:22:48.423Z,51.33
2022-10-09T21:25:16.275Z,54.35
2022-10-09T21:27:43.960Z,64.07
2022-10-09T21:30:12.338Z,64.07
2022-10-09T21:32:39.979Z,72.00
2022-10-09T21:35:07.936Z,66.57
2022-10-09T21:37:37.526Z,75.57
2022-10-09T21:40:05.938Z,82.13
2022-10-09T21:42:33.676Z,82.28
2022-10-09T21:45:01.235Z,85.20
2022-10-09T21:47:29.998Z,88.35
2022-10-09T21:49:57.812Z,106.93
2022-10-09T21:52:25.501Z,116.90
2022-10-09T21:54:53.084Z,117.15
2022-10-09T21:57:20.993Z,114.00
2022-10-09T21:59:48.601Z,123.38
2022-10-09T22:02:16.353Z,121.72
2022-10-09T22:04:43.866Z,127.18
2022-10-09T22:07:11.726Z,132.75
2022-10-09T22:09:39.308Z,117.18
2022-10-09T22:12:06.871Z,122.43
2022-10-09T22:14:35.691Z,126.28
2022-10-09T22:17:03.764Z,130.35
2022-10-09T22:19:34.298Z,121.77
2022-10-09T22:22:01.951Z,126.15
2022-10-09T22:24:30.693Z,124.15
2022-10-09T22:26:59.522Z,124.38
2022-10-09T22:29:27.321Z,126.57
2022-10-09T22:31:54.945Z,125.75
2022-10-09T22:34:22.561Z,118.25
2022-10-09T22:36:50.422Z,120.35
2022-10-09T22:39:18.278Z,108.38
2022-10-09T22:41:45.958Z,124.15
2022-10-09T22:44:13.538Z,117.68
2022-10-09T22:46:43.643Z,111.03
2022-10-09T22:49:13.909Z,96.47
2022-10-09T22:51:41.861Z,97.32
2022-10-09T22:54:09.500Z,92.72
2022-10-09T22:56:38.932Z,91.70
2022-10-09T22:59:06.941Z,81.15
2022-10-09T23:01:37.447Z,81.25
2022-10-09T23:04:07.007Z,83.25
2022-10-09T23:06:34.825Z,78.90
2022-10-09T23:09:04.293Z,81.78
2022-10-09T23:11:32.067Z,66.85
2022-10-09T23:14:00.198Z,59.70
2022-10-09T23:16:31.522Z,59.03
2022-10-09T23:19:05.478Z,58.80
2022-10-09T23:21:34.522Z,47.10
2022-10-09T23:24:02.151Z,45.17
2022-10-09T23:26:31.305Z,42.70
2022-10-09T23:29:04.521Z,42.00
2022-10-09T23:31:32.901Z,39.70
2022-10-09T23:34:00.656Z,40.60
2022-10-09T23:36:29.069Z,45.80
2022-10-09T23:38:57.068Z,43.05
2022-10-09T23:41:25.868Z,52.25
2022-10-09T23:43:54.733Z,45.45
2022-10-09T23:46:24.725Z,47.08
2022-10-09T23:48:52.427Z,44.83
2022-10-09T23:51:20.570Z,46.28
2022-10-09T23:53:48.320Z,42.17
2022-10-09T23:56:26.508Z,42.00
2022-10-09T23:58:54.452Z,50.10
